Conconully, Washington
Current Conditions -  °F | °C
As of 6:53 AM on Friday 24 Oct 2014 (Local Time) from KOMK Reporting Station
Few Clouds Few Clouds  
Wind Chill: 32°   Ceiling: Unl
Heat Index: 37°   Visibility: 10mi
Dew Point: 32°   Wind: 6mph
Humidity: 82%   Direction: 290°WNW
Pressure: 30.05"   Gusts: NA
Location:  48.56°N, 119.75°W
Report Text: KOMK 241353Z AUTO 29005KT 10SM FEW100 03/00 A3005 RMK AO2 SLP184 T00280000
Loading
Personal Weather Stations






























Interactive Weather Map
Tropical Storm Tracking
New forecast layout! Learn more

10-Day Weather Forecast

Advertisements
Track Severe Weather on mobile